createdAt,value
2022-10-26T00:03:15.772Z,39.5
2022-10-26T00:08:15.576Z,36.0
2022-10-26T00:13:15.497Z,39.5
2022-10-26T00:18:15.679Z,38.1
2022-10-26T00:23:15.573Z,38.0
2022-10-26T00:28:15.530Z,37.9
2022-10-26T00:33:15.733Z,36.5
2022-10-26T00:38:15.493Z,42.7
2022-10-26T00:43:15.491Z,40.8
2022-10-26T00:48:15.655Z,41.9
2022-10-26T00:53:16.323Z,61.5
2022-10-26T00:58:15.444Z,52.8
2022-10-26T01:03:15.570Z,41.8
2022-10-26T01:08:15.590Z,41.4
2022-10-26T01:13:15.459Z,39.6
2022-10-26T01:18:15.502Z,37.6
2022-10-26T01:23:15.641Z,37.7
2022-10-26T01:28:15.430Z,35.4
2022-10-26T01:33:15.433Z,37.9
2022-10-26T01:38:15.678Z,39.3
2022-10-26T01:43:15.634Z,38.1
2022-10-26T01:48:15.391Z,37.7
2022-10-26T01:53:15.596Z,36.0
2022-10-26T01:58:15.433Z,37.7
2022-10-26T02:03:15.391Z,36.2
2022-10-26T02:08:15.623Z,33.9
2022-10-26T02:13:15.389Z,36.7
2022-10-26T02:18:15.354Z,34.2
2022-10-26T02:23:15.505Z,35.4
2022-10-26T02:28:15.482Z,46.0
2022-10-26T02:33:15.250Z,42.6
2022-10-26T02:38:15.486Z,60.6
2022-10-26T02:43:15.976Z,58.2
2022-10-26T02:48:16.087Z,47.0
2022-10-26T02:53:16.072Z,35.8
2022-10-26T02:58:15.336Z,35.9
2022-10-26T03:03:15.358Z,39.8
2022-10-26T03:08:15.559Z,37.1
2022-10-26T03:13:15.648Z,37.6
2022-10-26T03:18:16.421Z,38.0
2022-10-26T03:23:16.073Z,39.8
2022-10-26T03:28:15.243Z,37.1
2022-10-26T03:33:15.375Z,39.2
2022-10-26T03:38:16.163Z,37.6
2022-10-26T03:43:15.307Z,39.6
2022-10-26T03:48:16.608Z,43.4
2022-10-26T03:53:15.367Z,41.6
2022-10-26T03:58:15.321Z,38.0
2022-10-26T04:03:15.154Z,36.8
2022-10-26T04:08:15.205Z,33.4
2022-10-26T04:13:15.122Z,33.9
2022-10-26T04:18:15.062Z,34.1
2022-10-26T04:23:15.302Z,32.2
2022-10-26T04:28:15.063Z,31.6
2022-10-26T04:33:15.075Z,31.0
2022-10-26T04:38:15.098Z,31.4
2022-10-26T04:43:15.090Z,32.5
2022-10-26T04:48:15.293Z,38.0
2022-10-26T04:53:15.922Z,40.2
2022-10-26T04:58:15.840Z,41.5
2022-10-26T05:03:15.804Z,42.1
2022-10-26T05:08:15.052Z,42.0
2022-10-26T05:13:15.082Z,37.1
2022-10-26T05:18:15.185Z,34.2
2022-10-26T05:23:15.000Z,36.9
2022-10-26T05:28:14.950Z,34.4
2022-10-26T05:33:15.195Z,37.5
2022-10-26T05:38:15.138Z,38.0
2022-10-26T05:43:15.032Z,36.9
2022-10-26T05:48:15.125Z,33.8
2022-10-26T05:53:14.906Z,32.6
2022-10-26T05:58:14.933Z,32.1
2022-10-26T06:03:15.117Z,31.8
2022-10-26T06:08:14.909Z,32.4
2022-10-26T06:13:14.846Z,32.3
2022-10-26T06:18:15.093Z,28.1
2022-10-26T06:23:15.281Z,28.6
2022-10-26T06:28:14.851Z,28.4
2022-10-26T06:33:24.979Z,33.8
2022-10-26T06:38:15.040Z,58.2
2022-10-26T06:43:15.010Z,43.9
2022-10-26T06:48:14.817Z,37.6
2022-10-26T06:53:15.001Z,41.0
2022-10-26T06:58:14.894Z,40.6
2022-10-26T07:03:15.020Z,52.3
2022-10-26T07:08:14.905Z,43.1
2022-10-26T07:13:15.041Z,48.0
2022-10-26T07:18:14.996Z,38.6
2022-10-26T07:23:14.806Z,38.8
2022-10-26T07:28:14.823Z,39.2
2022-10-26T07:33:14.913Z,39.9
2022-10-26T07:38:15.072Z,41.2
2022-10-26T07:43:14.700Z,42.4
2022-10-26T07:48:14.820Z,42.0
2022-10-26T07:53:15.055Z,44.2
2022-10-26T07:58:14.685Z,45.2
2022-10-26T08:03:14.922Z,46.5
2022-10-26T08:08:15.015Z,44.6
2022-10-26T08:13:14.875Z,46.2
2022-10-26T08:18:14.693Z,42.5
2022-10-26T08:23:14.945Z,41.3
2022-10-26T08:28:14.771Z,38.1
2022-10-26T08:33:14.780Z,33.4
2022-10-26T08:38:14.674Z,34.4
2022-10-26T08:43:14.635Z,34.4
2022-10-26T08:48:14.647Z,33.0
2022-10-26T08:53:14.851Z,33.3
2022-10-26T08:58:14.638Z,30.4
2022-10-26T09:03:14.615Z,29.6
2022-10-26T09:08:14.791Z,27.5
2022-10-26T09:13:14.594Z,27.4
2022-10-26T09:18:14.586Z,25.9
2022-10-26T09:23:14.775Z,23.5
2022-10-26T09:28:14.626Z,24.5
2022-10-26T09:33:14.618Z,19.4
2022-10-26T09:38:14.556Z,17.9
2022-10-26T09:43:14.592Z,18.5
2022-10-26T09:48:14.650Z,20.3
2022-10-26T09:53:14.507Z,19.6
2022-10-26T09:58:14.588Z,17.2
2022-10-26T10:03:14.850Z,16.6
2022-10-26T10:08:14.575Z,16.5
2022-10-26T10:13:14.570Z,16.2
2022-10-26T10:18:14.693Z,17.3
2022-10-26T10:23:14.561Z,16.8
2022-10-26T10:28:14.556Z,17.2
2022-10-26T10:33:14.463Z,14.3
2022-10-26T10:38:14.456Z,14.6
2022-10-26T10:43:14.471Z,15.7
2022-10-26T10:48:14.577Z,15.1
2022-10-26T10:53:14.440Z,13.0
2022-10-26T10:58:14.631Z,12.2
2022-10-26T11:03:15.599Z,12.2
2022-10-26T11:08:14.764Z,11.7
2022-10-26T11:13:14.470Z,10.9
2022-10-26T11:18:14.576Z,10.6
2022-10-26T11:23:14.494Z,10.6
2022-10-26T11:28:14.485Z,10.3
2022-10-26T11:33:14.903Z,9.4
2022-10-26T11:38:18.062Z,7.7
2022-10-26T11:43:14.715Z,8.1
2022-10-26T11:48:14.395Z,7.8
2022-10-26T11:53:14.479Z,6.6
2022-10-26T11:58:14.434Z,9.5
2022-10-26T12:03:14.581Z,6.9
2022-10-26T12:08:15.741Z,6.8
2022-10-26T12:13:14.272Z,5.3
2022-10-26T12:18:14.521Z,6.8
2022-10-26T12:23:23.156Z,8.1
2022-10-26T12:28:14.348Z,7.8
2022-10-26T12:33:14.449Z,6.3
2022-10-26T12:38:14.600Z,7.5
2022-10-26T12:43:14.529Z,4.6
2022-10-26T12:48:27.647Z,4.0
2022-10-26T12:53:14.509Z,4.9
2022-10-26T12:58:14.283Z,5.1
2022-10-26T13:03:14.321Z,7.0
2022-10-26T13:08:14.445Z,4.1
2022-10-26T13:13:14.258Z,3.1
2022-10-26T13:18:15.369Z,3.1
2022-10-26T13:23:14.501Z,2.8
2022-10-26T13:28:16.232Z,34.7
2022-10-26T13:33:14.328Z,4.0
2022-10-26T13:38:14.769Z,2.8
2022-10-26T13:43:14.257Z,3.0
2022-10-26T13:48:14.178Z,2.8
2022-10-26T13:53:14.487Z,4.2
2022-10-26T13:58:14.179Z,6.0
2022-10-26T14:03:14.165Z,4.4
2022-10-26T14:08:14.349Z,3.9
2022-10-26T14:13:14.175Z,4.2
2022-10-26T14:18:14.102Z,3.4
2022-10-26T14:23:14.291Z,3.9
2022-10-26T14:28:14.116Z,4.3
2022-10-26T14:38:14.413Z,13.4
2022-10-26T14:43:14.282Z,10.2
2022-10-26T14:48:14.147Z,8.0
2022-10-26T14:53:15.268Z,57.3
2022-10-26T14:58:14.123Z,138.3
2022-10-26T15:03:14.237Z,29.7
2022-10-26T15:08:23.747Z,7.4
2022-10-26T15:13:14.029Z,6.3
2022-10-26T15:18:14.051Z,3.1
2022-10-26T15:23:14.322Z,2.5
2022-10-26T15:28:14.378Z,3.2
2022-10-26T15:33:16.686Z,3.1
2022-10-26T15:38:14.900Z,3.3
2022-10-26T15:43:14.053Z,2.7
2022-10-26T15:48:14.056Z,2.9
2022-10-26T15:53:14.255Z,3.0
2022-10-26T15:58:14.085Z,3.5
2022-10-26T16:03:15.473Z,5.2
2022-10-26T16:08:17.800Z,4.4
2022-10-26T16:13:14.205Z,5.6
2022-10-26T16:18:14.288Z,4.9
2022-10-26T16:23:14.025Z,7.6
2022-10-26T16:28:13.957Z,4.8
2022-10-26T16:33:14.139Z,4.2
2022-10-26T16:38:14.000Z,4.4
2022-10-26T16:43:14.068Z,4.9
2022-10-26T16:48:13.855Z,4.5
2022-10-26T16:53:13.906Z,5.7
2022-10-26T16:58:13.864Z,6.7
2022-10-26T17:03:14.067Z,7.8
2022-10-26T17:08:13.852Z,8.6
2022-10-26T17:13:13.875Z,10.3
2022-10-26T17:18:14.119Z,9.8
2022-10-26T17:23:13.966Z,9.7
2022-10-26T17:28:13.781Z,9.1
2022-10-26T17:33:13.933Z,8.8
2022-10-26T17:38:13.875Z,10.5
2022-10-26T17:43:14.194Z,10.8
2022-10-26T17:48:14.038Z,15.3
2022-10-26T17:53:13.935Z,16.5
2022-10-26T17:58:13.871Z,19.6
2022-10-26T18:03:14.227Z,17.2
2022-10-26T18:08:13.729Z,17.5
2022-10-26T18:13:14.140Z,12.9
2022-10-26T18:18:14.049Z,10.3
2022-10-26T18:23:13.841Z,17.4
2022-10-26T18:28:13.770Z,15.9
2022-10-26T18:33:13.903Z,13.3
2022-10-26T18:38:15.247Z,19.4
2022-10-26T18:43:14.993Z,74.9
2022-10-26T18:48:14.717Z,56.9
2022-10-26T18:53:14.162Z,52.1
2022-10-26T18:58:13.781Z,32.9
2022-10-26T19:03:13.689Z,26.1
2022-10-26T19:08:14.246Z,22.1
2022-10-26T19:13:13.708Z,20.0
2022-10-26T19:18:13.804Z,18.4
2022-10-26T19:23:13.633Z,16.0
2022-10-26T19:28:13.795Z,17.5
2022-10-26T19:33:13.759Z,19.0
2022-10-26T19:38:13.807Z,24.3
2022-10-26T19:43:13.621Z,24.3
2022-10-26T19:48:13.950Z,34.7
2022-10-26T19:53:13.749Z,31.3
2022-10-26T19:58:13.962Z,33.6
2022-10-26T20:03:14.189Z,35.7
2022-10-26T20:08:15.258Z,35.2
2022-10-26T20:13:13.762Z,36.2
2022-10-26T20:18:13.850Z,32.5
2022-10-26T20:23:13.614Z,27.1
2022-10-26T20:28:13.734Z,26.3
2022-10-26T20:33:13.570Z,26.1
2022-10-26T20:38:13.832Z,26.4
2022-10-26T20:43:13.683Z,29.1
2022-10-26T20:48:13.561Z,41.4
2022-10-26T20:53:13.599Z,56.8
2022-10-26T20:58:13.522Z,31.5
2022-10-26T21:03:13.484Z,27.9
2022-10-26T21:08:13.608Z,28.7
2022-10-26T21:13:13.515Z,32.1
2022-10-26T21:18:13.624Z,39.2
2022-10-26T21:23:13.454Z,41.0
2022-10-26T21:28:13.502Z,40.9
2022-10-26T21:33:13.501Z,40.4
2022-10-26T21:38:13.411Z,40.8
2022-10-26T21:43:13.533Z,46.6
2022-10-26T21:48:14.557Z,45.1
2022-10-26T21:53:13.478Z,42.5
2022-10-26T21:58:13.428Z,39.4
2022-10-26T22:03:13.425Z,42.3
2022-10-26T22:08:13.379Z,49.6
2022-10-26T22:13:13.401Z,47.7
2022-10-26T22:18:13.346Z,45.0
2022-10-26T22:23:13.424Z,46.0
2022-10-26T22:28:13.718Z,43.1
2022-10-26T22:33:13.386Z,43.0
2022-10-26T22:38:13.353Z,40.2
2022-10-26T22:43:13.447Z,39.4
2022-10-26T22:48:13.597Z,40.3
2022-10-26T22:53:13.312Z,39.2
2022-10-26T22:58:13.378Z,38.7
2022-10-26T23:03:13.478Z,38.6
2022-10-26T23:08:13.414Z,38.2
2022-10-26T23:13:13.442Z,40.0
2022-10-26T23:18:13.496Z,41.4
2022-10-26T23:23:13.324Z,41.1
2022-10-26T23:28:14.016Z,42.4
2022-10-26T23:33:13.261Z,43.6
2022-10-26T23:38:14.496Z,41.1
2022-10-26T23:43:13.294Z,41.3
2022-10-26T23:48:13.373Z,40.8
2022-10-26T23:53:13.223Z,44.0
2022-10-26T23:58:13.304Z,41.1
